Terminal Aerodrome Forecast
Issued by NWS

Home | Current Version | Previous Version | Text Only | Print | Product List | Glossary On
Versions: 1 2 3 4 5 6 7 8 9 10 11 12 13 14 15 16 17 18 19 20 21 22 23 24
000
FTUS43 KSGF 011300 AAA
TAFBBG
TAF AMD
KBBG 011313Z 0113/0212 00000KT 1/4SM FG VV002
     FM011430 VRB03KT 2SM BR BKN004
     FM011530 VRB04KT 6SM BR BKN007
     FM011600 VRB04KT P6SM BKN050
     FM020600 VRB03KT 4SM BR SKC=

USA.gov is the U.S. government's official web portal to all federal, state and local government web resources and services.